KDIK/DIK METAR and TAF weather

Enter ICAO airport designator
Station Type Date Time Source
KDIK METAR 2018/01/23 00:56 UTC NOAA

KDIK 230056Z AUTO 22005KT 10SM CLR M07/M09 A2996 RMK AO2 SLP191 T10721089


Station Type Date Time Source
KDIK Decoded METAR 2018/01/23 00:56 UTC NOAA

THEODORE ROOSEVELT REGIONAL, ND, United States (KDIK) 46-48N 102-48W 788M
Jan 22, 2018 - 07:56 PM EST / 2018.01.23 0056 UTC
Wind: from the SW (220 degrees) at 6 MPH (5 KT):0
Visibility: 10 mile(s):0
Sky conditions: clear
Temperature: 19.0 F (-7.2 C)
Windchill: 10 F (-12 C):1
Dew Point: 16.0 F (-8.9 C)
Relative Humidity: 87%
Pressure (altimeter): 29.96 in. Hg (1014 hPa)
ob: KDIK 230056Z AUTO 22005KT 10SM CLR M07/M09 A2996 RMK AO2 SLP191 T10721089
cycle: 1

Station Type Date Time Source
KDIK TAF 2018/01/22 18:30 UTC NOAA

TAF KDIK 221726Z 2218/2318 28010KT P6SM FEW250
FM230200 27009KT P6SM SCT100 BKN250


Example: see airport list